ADDS METAR Data INFO
IDs: Format: Raw Decoded Include TAF

Data at: 0101 UTC 24 Jun 2018

PASC 240053Z 04008KT 10SM FEW023 BKN180 09/03 A3004 RMK AO2 SLP174 T00940033
PASC 232353Z 07006KT 10SM FEW023 BKN180 09/03 A3004 RMK AO2 SLP174 T00940028 10100 20039 50000
PASC 232253Z VRB04KT 10SM FEW023 BKN180 09/02 A3004 RMK AO2 SLP175 T00890017
PASC 232153Z 04003KT 10SM FEW023 SCT180 08/01 A3004 RMK AO2 SLP175 T00780006
PASC 232144Z VRB04KT 10SM FEW023 SCT180 08/01 A3004 RMK AO2 T00780006
PASC 232053Z 00000KT 10SM OVC024 07/00 A3004 RMK AO2 SLP173 T00720000 51007
PASC 231953Z 03003KT 10SM OVC023 06/00 A3004 RMK AO2 SLP173 T00610000
PASC 231853Z 03004KT 10SM OVC024 05/00 A3003 RMK AO2 SLP169 T00500000
PASC 231753Z 36004KT 10SM SCT160 BKN240 04/00 A3002 RMK AO2 SLP166 T00440000 10044 20011 51009
PASC 231653Z 00000KT 10SM FEW007 BKN240 03/M01 A3001 RMK AO2 SLP164 T00281006
PASC 231553Z 01004KT 10SM FEW007 BKN200 02/M01 A3000 RMK AO2 SLP159 T00171006
PASC 231453Z 02004KT 10SM FEW007 BKN200 02/M01 A2999 RMK AO2 SLP157 T00171006 51007
PASC 231353Z 36007KT 10SM FEW007 BKN200 01/M01 A2998 RMK AO2 SLP154 T00111006
PASC 231253Z 05005KT 10SM FEW007 SCT200 02/M01 A2998 RMK AO2 SLP153 T00171006
PASC 231153Z 07006KT 10SM FEW007 SCT200 02/M01 A2997 RMK AO2 SLP149 T00171006 10033 20011 51003
PASC 231053Z 06008KT 10SM FEW007 SCT150 01/M01 A2997 RMK AO2 SLP149 T00111006
PASC 230953Z 06009KT 10SM FEW007 SCT150 01/M01 A2996 RMK AO2 SLP147 T00111006
PASC 230853Z 06010KT 10SM SCT007 SCT150 02/00 A2996 RMK AO2 SLP146 T00170000 400440006 51004
PASC 230753Z 05010KT 10SM FEW007 SCT150 02/00 A2996 RMK AO2 SLP145 T00220000
PASC 230653Z 06010KT 10SM FEW007 SCT150 03/01 A2996 RMK AO2 SLP144 T00280006
PASC 230553Z 05010KT 10SM FEW007 SCT150 03/01 A2995 RMK AO2 SLP143 T00330006 10044 20022 55000
PASC 230453Z 05011KT 10SM FEW007 SCT150 04/01 A2995 RMK AO2 SLP141 T00390011
PASC 230353Z 04011KT 10SM SCT007 04/01 A2995 RMK AO2 SLP144 T00440011
PASC 230315Z 05010KT 10SM SCT006 04/01 A2995 RMK AO2 T00390011
PASC 230253Z 05010KT 10SM BKN006 04/02 A2995 RMK AO2 SLP143 T00390017 50000
PASC 230153Z 03011KT 10SM BKN006 04/01 A2995 RMK AO2 SLP144 T00390011
PASC 230053Z 01012KT 10SM BKN007 03/01 A2995 RMK AO2 CIG 003V008 SLP143 T00330011
PASC 230033Z 01013KT 8SM OVC004 03/01 A2995 RMK AO2 T00280006
PASC 230016Z 01012KT 10SM OVC005 03/01 A2996 RMK AO2 T00280011
PASC 222353Z 01011KT 5SM BR OVC004 03/01 A2995 RMK AO2 SLP143 T00280011 10028 20006 58004
PASC 222253Z 01011KT 3SM BR OVC003 03/01 A2996 RMK AO2 SLP145 T00280011
PASC 222153Z 01010KT 6SM BR OVC003 02/01 A2997 RMK AO2 SLP148 T00220006
PASC 222053Z 01009KT 2SM R06/6000VP6000FT BR OVC003 02/01 A2996 RMK AO2 SLP147 T00170006 53002
PASC 221953Z 01006KT 3SM BR OVC004 02/01 A2996 RMK AO2 SLP146 CIG RGD T00220006
PASC 221853Z 01009KT 3SM BR OVC003 01/00 A2996 RMK AO2 SLP145 T00110000
PASC 221828Z 02007KT 1 1/2SM R06/3500VP6000FT BR OVC003 01/01 A2996 RMK AO2 T00110006
PASC 221753Z 01008KT 1/2SM R06/1800V2600FT FG OVC003 01/01 A2996 RMK AO2 SLP145 T00110006 10011 20006 53003
PASC 221751Z 01008KT 1/2SM R06/1800VP6000FT FG OVC003 01/01 A2996 RMK AO2
PASC 221733Z 05007KT 2SM R06/6000VP6000FT BR OVC002 01/01 A2996 RMK AO2 T00110006
PASC 221653Z 04008KT 1 1/4SM R06/4000VP6000FT BR OVC002 01/01 A2995 RMK AO2 SLP143 T00110006
PASC 221553Z 07006KT 1/2SM R06/2000V2800FT FG VV002 01/01 A2996 RMK AO2 SLP144 T00060006
PASC 221453Z 04008KT 1/2SM R06/2400V3000FT FG VV002 01/01 A2994 RMK AO2 SLP141 T00110006 50002
PASC 221353Z 07009KT 3/4SM R06/2200V4500FT BR VV003 01/00 A2995 RMK AO2 SLP143 T00060000